Time;durP1;ratioP1;P1;durP2;ratioP2;P2;SDS_P1;SDS_P2;PMS_P1;PMS_P2;Temp;Humidity;BMP_temperature;BMP_pressure;BME280_temperature;BME280_humidity;BME280_pressure;Samples;Min_cycle;Max_cycle;Signal;HPM_P1;HPM_P2
2021/06/05 00:01:38;;;;;;;6.47;2.85;;;16.30;99.90;;;15.32;91.66;97918.97;4992846;28;20038;-69
2021/06/05 00:04:06;;;;;;;6.35;3.03;;;16.30;99.90;;;15.32;91.97;97917.19;5011883;28;20042;-70
2021/06/05 00:06:33;;;;;;;5.97;2.80;;;16.30;99.90;;;15.34;91.49;97906.66;5008351;28;20038;-69
2021/06/05 00:09:00;;;;;;;4.68;2.92;;;16.30;99.90;;;15.33;91.41;97907.59;5001502;28;20411;-69
2021/06/05 00:11:30;;;;;;;4.85;2.78;;;16.20;99.90;;;15.24;91.78;97914.19;5026507;28;20410;-69
2021/06/05 00:14:00;;;;;;;3.92;2.10;;;16.20;99.90;;;15.47;89.91;97902.44;4996845;28;20061;-69
2021/06/05 00:16:38;;;;;;;4.47;2.50;;;16.10;99.90;;;15.61;88.71;97897.22;5012112;28;20041;-69
2021/06/05 00:19:05;;;;;;;7.20;2.65;;;16.10;99.90;;;15.63;88.42;97889.31;5028594;28;20052;-69
2021/06/05 00:21:33;;;;;;;7.50;2.90;;;16.20;99.90;;;15.65;88.12;97893.50;5027529;28;20099;-69
2021/06/05 00:24:01;;;;;;;7.10;3.05;;;16.20;99.90;;;15.57;88.62;97894.88;5029650;28;20083;-69
2021/06/05 00:26:50;;;;;;;6.13;2.83;;;16.30;99.90;;;15.64;88.65;97893.59;5011283;28;20480;-69
2021/06/05 00:29:38;;;;;;;4.85;2.88;;;16.40;99.90;;;15.64;88.46;97891.81;5029575;28;20087;-69
2021/06/05 00:32:25;;;;;;;6.95;2.35;;;16.40;99.90;;;15.61;88.57;97889.38;5028144;28;20534;-69
2021/06/05 00:35:13;;;;;;;5.18;2.47;;;16.40;99.90;;;15.53;89.36;97899.47;5028983;28;20072;-69
2021/06/05 00:38:02;;;;;;;9.60;2.47;;;16.40;99.90;;;15.64;88.36;97891.81;5028966;28;20541;-69
2021/06/05 00:40:56;;;;;;;4.43;2.20;;;16.40;99.90;;;15.77;87.59;97894.59;5028196;28;20042;-69
2021/06/05 00:43:48;;;;;;;7.55;3.17;;;16.40;99.90;;;15.48;89.42;97901.47;5015406;28;20045;-69
2021/06/05 00:46:36;;;;;;;4.03;2.47;;;16.40;99.90;;;15.46;89.46;97893.75;5009349;28;20096;-69
2021/06/05 00:49:23;;;;;;;7.32;2.60;;;16.40;99.90;;;15.35;90.25;97895.25;5007072;28;20092;-69
2021/06/05 00:52:12;;;;;;;8.63;3.25;;;16.30;99.90;;;15.43;89.98;97895.69;5029856;28;20143;-69
2021/06/05 00:55:00;;;;;;;3.85;2.60;;;16.20;99.90;;;15.43;89.83;97882.59;5013034;28;20045;-69
2021/06/05 00:57:47;;;;;;;5.95;3.00;;;16.20;99.90;;;15.52;89.23;97882.06;5007011;28;20124;-69
2021/06/05 01:00:42;;;;;;;5.50;2.63;;;16.10;99.90;;;15.65;87.67;97877.81;5005160;28;20041;-69
2021/06/05 01:03:36;;;;;;;6.00;2.40;;;16.10;99.90;;;15.72;87.12;97873.09;5001389;28;20108;-69
2021/06/05 01:06:39;;;;;;;4.88;2.42;;;16.20;99.90;;;15.77;86.52;97878.06;4998175;28;20082;-69
2021/06/05 01:09:32;;;;;;;6.13;2.45;;;16.30;99.90;;;15.74;87.07;97878.25;5004409;28;20530;-70
2021/06/05 01:12:30;;;;;;;;;;;16.30;99.90;;;15.59;88.24;97886.00;5008937;28;20093;-69
2021/06/05 01:15:34;;;;;;;4.55;2.58;;;16.20;99.90;;;15.32;90.47;97879.75;5021123;28;19921;-69
2021/06/05 01:18:43;;;;;;;7.15;3.08;;;16.10;99.90;;;15.18;91.29;97878.75;4995152;28;20038;-69
2021/06/05 01:22:00;;;;;;;8.55;3.53;;;16.10;99.90;;;15.37;90.18;97883.81;5007706;28;20523;-69
2021/06/05 01:24:59;;;;;;;7.03;2.83;;;16.00;99.90;;;15.41;89.62;97885.28;5008965;28;20046;-69
2021/06/05 01:28:03;;;;;;;6.13;3.00;;;16.00;99.90;;;15.55;89.03;97881.88;5006528;28;20077;-69
2021/06/05 01:30:56;;;;;;;5.97;2.65;;;16.00;99.90;;;15.53;89.27;97875.06;5008104;28;20066;-69
2021/06/05 01:33:44;;;;;;;7.00;2.77;;;16.10;99.90;;;15.50;89.64;97877.84;5022534;28;20104;-69
2021/06/05 01:36:34;;;;;;;5.63;2.72;;;16.20;99.90;;;15.40;90.28;97870.53;5005498;28;20284;-69
2021/06/05 01:39:32;;;;;;;4.00;2.60;;;16.30;99.90;;;15.49;89.78;97871.78;4998482;28;20492;-69
2021/06/05 01:42:34;;;;;;;5.68;2.85;;;16.30;99.90;;;15.37;90.64;97870.72;5021266;28;20046;-69
2021/06/05 01:45:28;;;;;;;5.07;2.33;;;16.30;99.90;;;15.57;89.55;97868.72;5007549;28;20046;-69
2021/06/05 01:48:16;;;;;;;4.97;2.83;;;16.30;99.90;;;15.50;90.14;97875.25;5006609;28;20056;-69
2021/06/05 01:51:12;;;;;;;4.85;2.67;;;16.30;99.90;;;15.60;89.59;97872.00;5008550;28;20396;-69
2021/06/05 01:54:10;;;;;;;11.60;3.35;;;16.30;99.90;;;15.51;90.07;97869.94;5007736;28;20044;-69
2021/06/05 01:57:02;;;;;;;8.30;3.30;;;16.30;99.90;;;15.55;89.71;97866.19;5020543;28;20550;-69
2021/06/05 01:59:50;;;;;;;3.67;2.43;;;16.30;99.90;;;15.53;89.93;97862.84;5007588;28;20041;-69
2021/06/05 02:02:37;;;;;;;3.88;2.58;;;16.30;99.90;;;15.60;89.35;97866.78;5006664;28;20682;-69
2021/06/05 02:05:28;;;;;;;7.90;3.55;;;16.30;99.90;;;15.40;90.42;97862.69;5008139;28;20042;-69
2021/06/05 02:08:22;;;;;;;6.82;3.63;;;16.30;99.90;;;15.37;91.03;97867.25;5007958;28;20050;-69
2021/06/05 02:11:14;;;;;;;4.82;2.75;;;16.20;99.90;;;15.63;89.23;97873.59;5019793;28;20049;-69
2021/06/05 02:14:07;;;;;;;7.95;2.67;;;16.20;99.90;;;15.82;87.60;97858.53;5021663;28;20053;-69
2021/06/05 02:16:56;;;;;;;6.55;2.50;;;16.40;99.90;;;15.80;87.48;97856.94;4988290;28;20042;-69
2021/06/05 02:19:49;;;;;;;9.48;3.22;;;16.40;99.90;;;15.62;89.00;97872.78;5006896;28;20084;-69
2021/06/05 02:22:37;;;;;;;;;;;16.50;99.90;;;15.69;88.52;97863.63;5007738;28;20046;-69
2021/06/05 02:25:26;;;;;;;6.78;2.63;;;16.40;99.90;;;15.68;88.28;97856.69;5021538;28;20007;-69
2021/06/05 02:28:14;;;;;;;7.00;3.72;;;16.40;99.90;;;15.48;89.86;97864.84;5006553;28;20109;-69
2021/06/05 02:31:03;;;;;;;6.07;2.88;;;16.40;99.90;;;15.57;89.45;97863.50;5007450;28;20128;-69
2021/06/05 02:33:51;;;;;;;8.70;2.95;;;16.40;99.90;;;15.61;89.20;97855.38;5020549;28;20081;-69
2021/06/05 02:36:43;;;;;;;7.22;3.05;;;16.40;99.90;;;15.68;88.79;97848.84;5002123;28;20077;-69
2021/06/05 02:39:31;;;;;;;7.60;3.63;;;16.40;99.90;;;15.46;90.03;97849.28;5020388;28;20057;-69
2021/06/05 02:42:22;;;;;;;11.27;3.33;;;16.40;99.90;;;15.45;90.35;97851.97;5006197;28;20161;-69
2021/06/05 02:45:20;;;;;;;6.50;2.78;;;16.40;99.90;;;15.45;90.10;97851.97;5008568;28;20065;-69
2021/06/05 02:48:07;;;;;;;9.18;3.42;;;16.40;99.90;;;15.39;90.87;97854.94;4991848;28;20128;-69
2021/06/05 02:50:55;;;;;;;6.25;3.40;;;16.30;99.90;;;15.47;90.15;97858.78;5002862;28;20432;-70
2021/06/05 02:53:42;;;;;;;5.93;2.80;;;16.20;99.90;;;15.56;88.77;97860.03;5007864;28;20100;-69
2021/06/05 02:56:29;;;;;;;4.32;2.67;;;16.20;99.90;;;15.63;87.81;97860.53;5022497;28;20136;-69
2021/06/05 02:59:18;;;;;;;6.50;3.40;;;16.20;99.90;;;15.55;89.20;97870.56;5027114;28;20049;-69
2021/06/05 03:02:05;;;;;;;4.95;2.95;;;16.10;99.90;;;15.59;87.79;97874.72;5027771;28;20511;-69
2021/06/05 03:04:53;;;;;;;6.15;2.78;;;16.20;99.90;;;15.50;88.75;97880.47;5025022;28;20061;-69
2021/06/05 03:07:40;;;;;;;10.75;4.47;;;16.20;99.90;;;15.19;91.82;97875.22;5027516;28;20135;-69
2021/06/05 03:10:31;;;;;;;9.15;3.53;;;16.10;99.90;;;15.19;92.28;97872.63;5027041;28;20049;-69
2021/06/05 03:13:20;;;;;;;6.30;4.00;;;16.10;99.90;;;15.26;91.96;97873.94;5007353;28;20046;-70
2021/06/05 03:16:09;;;;;;;6.07;4.32;;;16.00;99.90;;;15.38;91.10;97875.00;5022580;28;20045;-69
2021/06/05 03:18:56;;;;;;;9.07;4.85;;;16.00;99.90;;;15.38;90.90;97866.34;5027058;28;20056;-69
2021/06/05 03:21:44;;;;;;;9.30;3.88;;;16.00;99.90;;;15.46;89.90;97874.56;5025658;28;20038;-69
2021/06/05 03:24:32;;;;;;;8.73;4.00;;;16.00;99.90;;;15.50;89.76;97868.22;5027455;28;20041;-69
2021/06/05 03:27:20;;;;;;;7.57;4.10;;;16.00;99.90;;;15.45;90.37;97868.50;5026673;28;20065;-69
2021/06/05 03:30:11;;;;;;;7.15;3.92;;;16.10;99.90;;;15.46;90.25;97864.97;5007682;28;20609;-69
2021/06/05 03:32:59;;;;;;;6.55;3.35;;;16.00;99.90;;;15.62;88.51;97871.91;5016746;28;20495;-69
2021/06/05 03:35:49;;;;;;;7.47;3.50;;;16.10;99.90;;;15.52;89.02;97865.53;5030199;28;20041;-69
2021/06/05 03:38:38;;;;;;;8.63;4.68;;;16.10;99.90;;;15.40;90.65;97865.31;5031586;28;20215;-69
2021/06/05 03:41:25;;;;;;;6.10;3.70;;;16.10;99.90;;;15.46;90.60;97858.88;5028975;28;20519;-69
2021/06/05 03:44:13;;;;;;;8.82;2.88;;;16.10;99.90;;;15.63;88.70;97848.28;5015162;28;20108;-69
2021/06/05 03:47:00;;;;;;;4.43;2.90;;;16.20;99.90;;;15.80;87.56;97851.69;5030649;28;20140;-69
2021/06/05 03:49:48;;;;;;;5.10;2.80;;;16.40;99.90;;;15.84;87.32;97850.59;5031746;28;20057;-69
2021/06/05 03:52:35;;;;;;;7.60;3.10;;;16.50;99.90;;;15.78;87.54;97849.19;5015302;28;20207;-69
2021/06/05 03:55:24;;;;;;;5.82;3.90;;;16.50;99.90;;;15.90;87.56;97855.47;5016943;28;20044;-69
2021/06/05 03:58:12;;;;;;;6.82;3.17;;;16.40;99.90;;;15.76;88.27;97855.41;5028509;28;20034;-69
2021/06/05 04:01:00;;;;;;;7.20;4.10;;;16.50;99.90;;;15.79;88.15;97847.41;5015177;28;20038;-69
2021/06/05 04:03:47;;;;;;;10.63;4.88;;;16.40;99.90;;;15.68;89.64;97848.00;5013206;28;20077;-69
2021/06/05 04:06:21;;;;;;;10.40;5.22;;;16.30;99.90;;;15.41;92.43;97859.13;5029934;28;20073;-69
2021/06/05 04:09:08;;;;;;;6.50;3.78;;;16.30;99.90;;;15.69;89.90;97857.53;5029589;28;20526;-69
2021/06/05 04:11:55;;;;;;;9.27;5.70;;;16.20;99.90;;;15.47;92.26;97856.19;5027761;28;20156;-69
2021/06/05 04:14:43;;;;;;;9.90;5.90;;;16.20;99.90;;;15.58;91.65;97860.78;5030360;28;20046;-70
2021/06/05 04:17:30;;;;;;;9.80;4.80;;;16.20;99.90;;;15.72;90.60;97856.56;5028690;28;20044;-70
2021/06/05 04:20:17;;;;;;;12.43;6.45;;;16.30;99.90;;;15.61;91.28;97865.00;5029542;28;20046;-69
2021/06/05 04:23:08;;;;;;;9.90;5.63;;;16.40;99.90;;;15.39;93.29;97865.38;5030810;28;20498;-70
2021/06/05 04:25:55;;;;;;;6.70;4.88;;;16.50;99.90;;;15.51;93.01;97863.84;5015346;28;20041;-70
2021/06/05 04:28:43;;;;;;;9.75;6.95;;;16.50;99.90;;;15.47;93.44;97866.63;5013917;28;20046;-69
2021/06/05 04:31:31;;;;;;;14.30;7.85;;;16.60;99.90;;;15.74;92.00;97866.00;5028104;28;20160;-69
2021/06/05 04:34:19;;;;;;;23.73;13.55;;;16.70;99.90;;;15.93;91.92;97865.75;5029487;28;20422;-70
2021/06/05 04:37:06;;;;;;;23.27;12.95;;;16.70;99.90;;;15.93;92.29;97867.53;5015780;28;20096;-69
2021/06/05 04:39:53;;;;;;;25.50;13.73;;;16.70;99.90;;;15.96;92.39;97869.94;5030723;28;20092;-69
2021/06/05 04:42:41;;;;;;;21.23;12.85;;;16.70;99.90;;;15.75;94.02;97869.44;5025449;28;20131;-69
2021/06/05 04:45:28;;;;;;;24.10;14.48;;;16.90;99.90;;;15.86;92.94;97872.28;5028237;28;20561;-70
2021/06/05 04:48:16;;;;;;;27.20;14.00;;;16.90;99.90;;;15.85;93.42;97873.19;5028548;28;20045;-69
2021/06/05 04:51:05;;;;;;;29.45;15.43;;;17.00;99.90;;;16.22;91.04;97877.09;5028919;28;20092;-69
2021/06/05 04:53:52;;;;;;;30.88;15.90;;;17.00;99.90;;;16.07;93.32;97878.84;5028740;28;20184;-69
2021/06/05 04:56:46;;;;;;;27.67;16.98;;;17.00;99.90;;;16.34;91.48;97878.13;5029640;28;20046;-69
2021/06/05 04:59:33;;;;;;;34.70;18.60;;;17.10;99.90;;;16.34;90.95;97875.50;5028033;28;20096;-69
2021/06/05 05:02:20;;;;;;;32.17;15.77;;;17.20;99.90;;;16.52;89.80;97876.97;5027666;28;20049;-70
2021/06/05 05:05:09;;;;;;;34.35;16.80;;;17.30;99.90;;;16.61;88.85;97875.56;5028274;28;20041;-70
2021/06/05 05:07:58;;;;;;;32.97;17.20;;;17.40;99.90;;;16.51;89.50;97880.56;5016362;28;20419;-69
2021/06/05 05:10:48;;;;;;;32.00;16.35;;;17.40;99.90;;;16.69;88.71;97888.19;5014285;28;20045;-69
2021/06/05 05:13:36;;;;;;;28.95;15.07;;;17.40;99.90;;;16.53;89.58;97893.53;5029166;28;20072;-69
2021/06/05 05:16:24;;;;;;;32.53;15.82;;;17.50;99.90;;;16.86;87.87;97892.41;5028286;28;20061;-69
2021/06/05 05:19:11;;;;;;;36.15;17.58;;;17.50;99.90;;;16.58;90.03;97896.75;5028218;28;20104;-69
2021/06/05 05:21:59;;;;;;;33.90;16.40;;;17.60;99.90;;;16.87;88.07;97894.09;5015540;28;20490;-70
2021/06/05 05:24:46;;;;;;;40.13;18.10;;;17.60;99.90;;;16.35;91.31;97910.38;5029397;28;20058;-69
2021/06/05 05:27:34;;;;;;;38.05;19.30;;;17.50;99.90;;;16.46;91.35;97897.47;5028309;28;20053;-70
2021/06/05 05:30:35;;;;;;;46.65;19.33;;;17.50;99.90;;;16.15;93.20;97909.81;5020935;28;20050;-69
2021/06/05 05:33:24;;;;;;;36.03;17.48;;;17.50;99.90;;;16.56;91.07;97906.47;5020403;28;20037;-69
2021/06/05 05:36:22;;;;;;;41.17;19.35;;;17.50;99.90;;;16.41;91.07;97902.16;5025999;28;20037;-70
2021/06/05 05:39:14;;;;;;;34.90;16.77;;;17.60;99.90;;;16.43;91.33;97895.88;5025743;28;20487;-70
2021/06/05 05:42:01;;;;;;;31.67;16.02;;;17.60;99.90;;;16.73;89.42;97898.38;5026480;28;20038;-69
2021/06/05 05:44:49;;;;;;;34.15;16.77;;;17.50;99.90;;;16.76;89.62;97899.97;5028013;28;20045;-70
2021/06/05 05:47:36;;;;;;;26.83;14.45;;;17.60;99.90;;;16.97;88.02;97900.44;5026491;28;20417;-70
2021/06/05 05:50:25;;;;;;;24.15;13.75;;;17.80;99.90;;;17.35;87.25;97900.59;5028585;28;20127;-70
2021/06/05 05:53:13;;;;;;;24.13;13.13;;;18.10;99.90;;;17.01;87.34;97898.47;5026445;28;20041;-69
2021/06/05 05:56:01;;;;;;;29.15;15.43;;;18.10;99.90;;;16.49;89.66;97908.63;5028155;28;20064;-70
2021/06/05 05:58:52;;;;;;;25.33;13.40;;;18.10;99.90;;;16.88;88.43;97909.72;5028365;28;20048;-69
2021/06/05 06:01:40;;;;;;;20.52;11.88;;;18.10;99.90;;;16.85;87.59;97914.31;5025150;28;20053;-70
2021/06/05 06:04:27;;;;;;;23.13;11.48;;;18.10;99.90;;;16.79;87.74;97907.69;5028779;28;20045;-70
2021/06/05 06:07:15;;;;;;;16.83;10.50;;;18.20;99.90;;;16.99;87.40;97913.44;5026826;28;20049;-70
2021/06/05 06:10:07;;;;;;;20.50;11.88;;;18.30;99.90;;;17.05;86.38;97919.16;5028699;28;20048;-69
2021/06/05 06:12:54;;;;;;;18.35;10.27;;;18.40;99.90;;;16.88;87.71;97914.16;5025752;28;20101;-70
2021/06/05 06:15:42;;;;;;;16.92;9.82;;;18.50;99.90;;;17.25;85.93;97912.63;5027449;28;20068;-69
2021/06/05 06:18:30;;;;;;;18.75;10.48;;;18.60;99.90;;;17.17;86.30;97912.28;5028857;28;20045;-69
2021/06/05 06:21:20;;;;;;;17.05;9.82;;;18.70;99.90;;;17.40;84.71;97915.19;5027585;28;20033;-70
2021/06/05 06:24:10;;;;;;;18.15;10.10;;;18.80;99.90;;;17.35;85.32;97916.34;5027235;28;20049;-70
2021/06/05 06:26:57;;;;;;;21.30;11.20;;;18.80;99.90;;;17.29;85.32;97922.00;5026779;28;20056;-70
2021/06/05 06:29:45;;;;;;;16.60;9.68;;;18.90;99.90;;;17.46;85.83;97915.63;5028113;28;20037;-70
2021/06/05 06:32:32;;;;;;;18.50;9.98;;;18.90;99.90;;;17.73;83.78;97910.38;5024755;28;20081;-70
2021/06/05 06:35:23;;;;;;;14.13;8.77;;;19.10;99.90;;;17.94;82.58;97917.78;5027411;28;20038;-70
2021/06/05 06:38:21;;;;;;;13.98;8.55;;;19.30;99.90;;;17.98;81.99;97921.91;5026512;28;20056;-70
2021/06/05 06:40:49;;;;;;;11.82;7.20;;;19.50;99.90;;;18.49;79.41;97918.44;5012170;28;20052;-70
2021/06/05 06:43:24;;;;;;;12.05;7.45;;;19.80;99.90;;;18.97;78.86;97914.16;5027547;28;20486;-70
2021/06/05 06:46:20;;;;;;;10.45;6.68;;;20.00;99.90;;;19.63;75.96;97919.06;5027033;28;20045;-70
2021/06/05 06:48:54;;;;;;;12.18;7.22;;;20.60;99.90;;;19.15;75.81;97919.06;5029231;28;20057;-70
2021/06/05 06:51:23;;;;;;;12.10;6.45;;;21.00;99.90;;;20.01;73.42;97908.31;5028421;28;20041;-70
2021/06/05 06:53:50;;;;;;;9.43;6.00;;;21.20;99.90;;;20.47;72.19;97911.84;5029182;28;20037;-70
2021/06/05 06:56:19;;;;;;;9.98;6.70;;;21.70;99.90;;;20.73;71.31;97914.28;5028434;28;20037;-70
2021/06/05 06:58:50;;;;;;;8.57;6.00;;;22.00;99.90;;;19.78;72.37;97912.69;5014579;28;20071;-71
2021/06/05 07:01:18;;;;;;;8.60;5.72;;;22.00;99.90;;;20.55;71.04;97913.88;5020218;28;20038;-70
2021/06/05 07:03:46;;;;;;;7.75;5.20;;;22.00;99.90;;;20.52;71.11;97920.25;5029753;28;20499;-70
2021/06/05 07:06:15;;;;;;;6.00;4.53;;;22.30;99.90;;;20.87;70.52;97917.53;5004383;28;20041;-69
2021/06/05 07:08:43;;;;;;;8.18;4.47;;;22.50;99.90;;;20.39;69.66;97917.75;5029968;28;20041;-70
2021/06/05 07:11:34;;;;;;;7.70;4.80;;;22.50;99.90;;;19.79;71.65;97921.44;5030994;28;20534;-70
2021/06/05 07:14:05;;;;;;;7.68;4.63;;;21.80;99.90;;;19.84;72.05;97920.16;5032844;28;20123;-70
2021/06/05 07:16:35;;;;;;;6.10;4.43;;;21.50;99.90;;;19.75;72.58;97920.84;5031834;28;20499;-70
2021/06/05 07:19:06;;;;;;;6.63;3.92;;;21.40;99.90;;;18.93;74.81;97932.91;5011549;28;20092;-70
2021/06/05 07:21:36;;;;;;;10.75;4.55;;;21.00;99.90;;;18.63;75.59;97925.34;5002629;28;20059;-69
2021/06/05 07:24:05;;;;;;;7.38;4.22;;;20.80;99.90;;;18.87;75.64;97928.94;5009642;28;20041;-69
2021/06/05 07:26:33;;;;;;;9.98;6.20;;;20.40;99.90;;;18.31;78.63;97931.06;5013982;28;20140;-70
2021/06/05 07:29:05;;;;;;;9.88;6.72;;;20.20;99.90;;;18.01;79.33;97934.81;5031983;28;20053;-69
2021/06/05 07:31:37;;;;;;;11.38;6.68;;;20.10;99.90;;;18.45;79.00;97930.09;5014050;28;20148;-70
2021/06/05 07:34:26;;;;;;;11.52;6.30;;;20.20;99.90;;;18.53;77.90;97931.25;5028185;28;20045;-70
2021/06/05 07:37:14;;;;;;;12.00;6.43;;;19.90;99.90;;;18.96;76.61;97937.97;5022590;28;20079;-69
2021/06/05 07:40:06;;;;;;;12.80;7.15;;;20.00;99.90;;;18.42;79.55;97936.41;5027410;28;20133;-69
2021/06/05 07:42:53;;;;;;;10.13;7.40;;;20.20;99.90;;;18.37;79.38;97946.41;5015553;28;20041;-69
2021/06/05 07:45:22;;;;;;;11.25;6.70;;;20.10;99.90;;;19.08;76.34;97936.25;5027443;28;20414;-69
2021/06/05 07:47:50;;;;;;;7.65;4.72;;;20.00;99.90;;;18.67;76.51;97951.31;5031513;28;20272;-70
2021/06/05 07:50:20;;;;;;;13.18;7.15;;;19.80;99.90;;;18.24;79.26;97943.75;5014516;28;20058;-69
2021/06/05 07:52:48;;;;;;;10.13;6.82;;;19.70;99.90;;;18.47;78.32;97952.69;5031218;28;20045;-70
2021/06/05 07:55:15;;;;;;;9.55;6.38;;;19.60;99.90;;;18.39;79.14;97953.22;5014400;28;20099;-70
2021/06/05 07:57:42;;;;;;;13.80;8.20;;;19.60;99.90;;;18.51;78.91;97943.66;5031358;28;20060;-70
2021/06/05 08:00:26;;;;;;;11.77;7.18;;;19.60;99.90;;;18.91;77.17;97940.91;5032416;28;20103;-70
2021/06/05 08:02:54;;;;;;;14.18;7.72;;;19.70;99.90;;;18.73;77.39;97950.06;4994656;28;20049;-70
2021/06/05 08:05:22;;;;;;;13.57;7.63;;;19.90;99.90;;;18.48;79.88;97943.88;5024123;28;20051;-69
2021/06/05 08:07:53;;;;;;;11.77;7.13;;;20.10;99.90;;;18.89;76.36;97945.44;4988845;28;20491;-69
2021/06/05 08:10:24;;;;;;;12.90;7.88;;;20.00;99.90;;;18.47;79.76;97957.13;5014709;28;20460;-69
2021/06/05 08:12:51;;;;;;;10.55;6.95;;;20.00;99.90;;;18.20;79.26;97958.06;5018607;28;20114;-69
2021/06/05 08:15:27;;;;;;;13.45;7.03;;;20.20;99.90;;;18.53;79.19;97952.28;5032009;28;20388;-70
2021/06/05 08:17:54;;;;;;;12.90;6.80;;;20.20;99.90;;;18.69;78.92;97952.06;5029126;28;20049;-69
2021/06/05 08:20:34;;;;;;;12.18;6.43;;;20.30;99.90;;;18.45;78.71;97945.88;5010257;28;20041;-69
2021/06/05 08:23:04;;;;;;;14.27;7.32;;;20.30;99.90;;;18.77;77.26;97947.16;5000671;28;20079;-69
2021/06/05 08:25:51;;;;;;;13.55;7.47;;;20.30;99.90;;;18.73;77.39;97944.81;5016448;28;20056;-69
2021/06/05 08:28:39;;;;;;;12.60;7.45;;;20.60;99.90;;;18.98;78.19;97947.44;5010271;28;20054;-69
2021/06/05 08:31:27;;;;;;;11.43;6.97;;;20.40;99.90;;;19.24;76.46;97957.88;5010603;28;20054;-69
2021/06/05 08:34:16;;;;;;;14.10;7.88;;;20.20;99.90;;;19.01;77.56;97949.81;5028820;28;20120;-71
2021/06/05 08:37:04;;;;;;;15.43;9.23;;;20.00;99.90;;;18.48;80.15;97953.56;5027117;28;20097;-69
2021/06/05 08:39:52;;;;;;;14.88;9.00;;;19.90;99.90;;;18.25;81.84;97955.97;5027187;28;20168;-69
2021/06/05 08:42:48;;;;;;;17.73;10.05;;;19.60;99.90;;;17.59;85.30;97964.72;5025930;28;20052;-70
2021/06/05 08:45:36;;;;;;;18.80;10.45;;;19.30;99.90;;;17.46;87.47;97962.88;5023071;28;20045;-69
2021/06/05 08:48:14;;;;;;;20.77;12.15;;;18.80;99.90;;;17.83;84.20;97962.31;4978562;28;20041;-71
2021/06/05 08:50:41;;;;;;;24.42;11.93;;;18.80;99.90;;;17.52;85.29;97965.13;5012814;28;20050;-70
2021/06/05 08:53:21;;;;;;;19.80;12.32;;;18.60;99.90;;;17.44;86.30;97967.38;5027559;28;20044;-70
2021/06/05 08:56:01;;;;;;;19.70;11.63;;;18.50;99.90;;;17.86;85.54;97960.31;5006268;28;20052;-71
2021/06/05 08:58:39;;;;;;;20.88;12.93;;;18.30;99.90;;;17.04;89.16;97963.84;5009480;28;20049;-71
2021/06/05 09:01:27;;;;;;;19.45;10.98;;;18.10;99.90;;;17.56;88.81;97963.13;5001076;28;20160;-71
2021/06/05 09:04:01;;;;;;;10.57;6.85;;;18.20;99.90;;;17.52;87.23;97972.16;5030984;28;20103;-71
2021/06/05 09:06:55;;;;;;;10.83;7.20;;;18.10;99.90;;;17.40;89.72;97968.50;5010951;28;20099;-72
2021/06/05 09:09:30;;;;;;;21.85;11.68;;;18.00;99.90;;;17.18;90.23;97966.44;5027312;28;20092;-71
2021/06/05 09:11:59;;;;;;;17.25;12.15;;;18.00;99.90;;;17.12;91.56;97964.19;5012142;28;20487;-71
2021/06/05 09:14:27;;;;;;;20.70;14.13;;;17.70;99.90;;;17.25;91.29;97972.97;5027940;28;20041;-71
2021/06/05 09:16:56;;;;;;;18.70;12.48;;;17.60;99.90;;;17.34;91.50;97968.94;5012006;28;20041;-71
2021/06/05 09:19:28;;;;;;;19.55;13.10;;;17.70;99.90;;;17.31;91.81;97975.22;5010838;28;20052;-71
2021/06/05 09:22:19;;;;;;;19.15;11.60;;;17.80;99.90;;;17.53;91.25;97973.81;5030355;28;20037;-71
2021/06/05 09:24:48;;;;;;;16.45;11.18;;;18.00;99.90;;;17.61;91.95;97973.31;5021424;28;20052;-71
2021/06/05 09:27:18;;;;;;;17.88;10.57;;;18.20;99.90;;;17.74;90.75;97968.97;5008849;28;20045;-70
2021/06/05 09:30:02;;;;;;;19.10;12.18;;;18.40;99.90;;;17.70;90.74;97978.84;5030673;28;20053;-70
2021/06/05 09:32:59;;;;;;;21.88;12.85;;;18.40;99.90;;;17.54;88.87;97970.28;5028927;28;20041;-70
2021/06/05 09:35:37;;;;;;;17.17;10.32;;;18.50;99.90;;;17.98;88.43;97969.16;5013232;28;20111;-71
2021/06/05 09:38:34;;;;;;;17.40;10.45;;;18.70;99.90;;;17.77;89.02;97971.41;5012509;28;20064;-71
2021/06/05 09:41:49;;;;;;;18.90;11.57;;;18.70;99.90;;;18.15;89.06;97962.78;5023490;28;20518;-70
2021/06/05 09:44:47;;;;;;;16.20;9.45;;;18.90;99.90;;;18.50;88.49;97965.66;5026058;28;20057;-71
2021/06/05 09:47:31;;;;;;;16.35;9.57;;;19.20;99.90;;;18.46;87.77;97960.72;5014932;28;20049;-71
2021/06/05 09:50:16;;;;;;;13.45;8.32;;;19.30;99.90;;;18.83;88.09;97968.72;5006078;28;20092;-71
2021/06/05 09:53:17;;;;;;;11.52;8.25;;;19.60;99.90;;;18.92;85.47;97962.81;5021133;28;20049;-70
2021/06/05 09:56:10;;;;;;;10.73;8.02;;;19.90;99.90;;;19.17;83.45;97964.53;5020088;28;20038;-70
2021/06/05 09:59:12;;;;;;;13.73;8.55;;;20.10;99.90;;;19.35;83.23;97962.38;5011733;28;20515;-70
2021/06/05 10:02:19;;;;;;;12.10;9.25;;;20.20;99.90;;;19.42;83.81;97968.88;5010656;28;20037;-70
2021/06/05 10:05:28;;;;;;;12.40;7.82;;;20.40;99.90;;;19.54;82.92;97967.97;4995400;28;20073;-71
2021/06/05 10:08:40;;;;;;;14.93;7.95;;;20.60;99.90;;;19.56;82.63;97973.97;5027842;28;20041;-70
2021/06/05 10:11:30;;;;;;;14.23;8.87;;;20.80;99.90;;;19.70;82.22;97975.63;5017133;28;20357;-70
2021/06/05 10:14:20;;;;;;;12.43;8.23;;;20.90;99.90;;;19.84;80.96;97964.91;5022889;28;20300;-70
2021/06/05 10:17:02;;;;;;;11.57;8.75;;;21.10;99.90;;;18.91;82.80;97969.03;4991660;28;20103;-70
2021/06/05 10:19:49;;;;;;;12.52;7.35;;;21.00;99.90;;;19.83;82.19;97963.22;5016936;28;20156;-70
2021/06/05 10:22:17;;;;;;;10.52;7.40;;;21.20;99.90;;;19.65;79.42;97969.81;5007108;28;20033;-70
2021/06/05 10:25:06;;;;;;;11.23;7.50;;;21.50;99.90;;;19.75;78.96;97968.25;5027031;28;20038;-70
2021/06/05 10:27:39;;;;;;;17.02;6.50;;;21.20;99.90;;;19.39;79.51;97962.03;5005927;28;20104;-70
2021/06/05 10:30:38;;;;;;;8.40;4.90;;;20.90;99.90;;;19.48;79.17;97963.16;5024673;28;20049;-70
2021/06/05 10:33:35;;;;;;;6.75;4.65;;;20.90;99.90;;;20.35;78.21;97958.47;4996786;28;20053;-71
2021/06/05 10:36:44;;;;;;;5.78;4.18;;;21.30;99.90;;;20.56;75.95;97956.00;5022381;28;20048;-71
2021/06/05 10:39:39;;;;;;;6.07;4.13;;;21.70;99.90;;;20.84;75.00;97959.97;5010124;28;20034;-71
2021/06/05 10:42:51;;;;;;;6.53;4.13;;;22.00;99.90;;;20.44;71.69;97956.94;5021833;28;20034;-71
2021/06/05 10:45:40;;;;;;;7.88;4.75;;;22.30;99.90;;;20.79;72.66;97951.56;5015814;28;20057;-71
2021/06/05 10:48:36;;;;;;;6.73;4.43;;;22.20;99.90;;;19.68;75.66;97952.94;5013861;28;20064;-71
2021/06/05 10:51:15;;;;;;;9.32;4.85;;;22.10;99.90;;;20.36;74.39;97952.22;5014332;28;20300;-70
2021/06/05 10:54:05;;;;;;;8.20;4.20;;;21.80;99.90;;;20.09;73.31;97954.31;5015570;28;20478;-70
2021/06/05 10:56:55;;;;;;;9.32;5.57;;;21.70;99.90;;;19.29;77.85;97960.16;4997164;28;20417;-71
2021/06/05 10:59:48;;;;;;;;;;;21.60;99.90;;;18.73;78.58;97958.81;5020225;28;20115;-71
2021/06/05 11:02:41;;;;;;;5.90;4.20;;;21.20;99.90;;;19.10;76.99;97960.66;5009424;28;20299;-71
2021/06/05 11:05:35;;;;;;;7.28;4.38;;;20.60;99.90;;;19.18;78.61;97961.81;5031173;28;20123;-71
2021/06/05 11:08:33;;;;;;;6.43;4.65;;;20.20;99.90;;;19.14;79.18;97962.97;5010343;28;20056;-71
2021/06/05 11:11:00;;;;;;;6.32;4.20;;;20.20;99.90;;;19.09;78.78;97959.81;5011024;28;20045;-71
2021/06/05 11:13:35;;;;;;;8.13;5.07;;;20.00;99.90;;;19.13;78.28;97961.25;5029653;28;20037;-71
2021/06/05 11:16:15;;;;;;;9.10;5.30;;;19.90;99.90;;;18.63;82.07;97964.78;5030906;28;20103;-71
2021/06/05 11:18:44;;;;;;;8.48;5.55;;;19.70;99.90;;;18.42;84.01;97965.31;5012877;28;20034;-71
2021/06/05 11:21:31;;;;;;;9.18;5.82;;;19.40;99.90;;;18.47;85.16;97957.13;5031903;28;20080;-71
2021/06/05 11:24:22;;;;;;;10.27;7.25;;;19.20;99.90;;;17.97;87.53;97967.47;5031651;28;20056;-71
2021/06/05 11:27:39;;;;;;;8.20;4.90;;;19.10;99.90;;;18.31;85.94;97957.31;5002086;28;20037;-71
2021/06/05 11:30:29;;;;;;;8.88;4.43;;;19.20;99.90;;;18.05;84.90;97962.56;5031800;28;20038;-70
2021/06/05 11:33:10;;;;;;;8.23;4.20;;;19.20;99.90;;;18.04;84.30;97960.88;5013411;28;20129;-70